Flight Track Log - Related Links

Times and Time Zones

All times are in EDT time to prevent confusion due to time zone crossing. See the TAM3407 flight status page for this flight to view local times or setup timezone preferences in your user account.

Time Position Orientation Groundspeed Altitude Reporting Facility
EDT Latitude Longitude Course Direction KTS MPH feet Rate Location/Type
Tue 02:42:00 AM -6.6654 -47.2536 167° South  Level Estimated
Tue 02:43:00 AM -6.7691 -47.2294 167° South  Level Estimated
Tue 02:44:00 AM -6.8727 -47.2052 167° South  Level Estimated
Tue 02:45:00 AM -6.9763 -47.1810 167° South  Level Estimated
Tue 02:46:00 AM -7.0799 -47.1568 167° South  Level Estimated
Tue 02:47:00 AM -7.1836 -47.1326 167° South  Level Estimated
Tue 02:48:00 AM -7.2872 -47.1084 167° South  Level Estimated
Tue 02:49:00 AM -7.3908 -47.0841 167° South  Level Estimated
Tue 02:50:00 AM -7.4944 -47.0599 167° South  Level Estimated
Tue 02:51:00 AM -7.5981 -47.0356 167° South  Level Estimated
Tue 02:52:00 AM -7.7017 -47.0114 167° South  Level Estimated
Tue 02:53:00 AM -7.8053 -46.9871 167° South  Level Estimated
Tue 02:54:00 AM -7.9089 -46.9628 167° South  Level Estimated
Tue 02:55:00 AM -8.0125 -46.9385 167° South  Level Estimated
Tue 02:56:00 AM -8.1161 -46.9142 167° South  Level Estimated
Tue 02:57:00 AM -8.2197 -46.8898 167° South  Level Estimated
Tue 02:58:00 AM -8.3233 -46.8655 167° South  Level Estimated
Tue 02:59:00 AM -8.4270 -46.8411 167° South  Level Estimated
Tue 03:00:00 AM -8.5306 -46.8168 167° South  Level Estimated
Tue 03:01:00 AM -8.6342 -46.7924 167° South  Level Estimated
Tue 03:02:00 AM -8.7378 -46.7680 167° South  Level Estimated
Tue 03:03:00 AM -8.8414 -46.7436 167° South  Level Estimated
Tue 03:04:00 AM -8.9450 -46.7192 167° South  Level Estimated
Tue 03:05:00 AM -9.0486 -46.6947 167° South  Level Estimated
Tue 03:06:00 AM -9.1522 -46.6703 167° South  Level Estimated
Tue 03:07:00 AM -9.2557 -46.6458 167° South  Level Estimated
Tue 03:08:00 AM -9.3593 -46.6213 167° South  Level Estimated
Tue 03:09:00 AM -9.4629 -46.5968 167° South  Level Estimated
Tue 03:10:00 AM -9.5665 -46.5723 167° South  Level Estimated
Tue 03:11:00 AM -9.6701 -46.5478 167° South  Level Estimated
Tue 03:12:00 AM -9.7737 -46.5232 167° South  Level Estimated
Tue 03:13:00 AM -9.8773 -46.4987 167° South  Level Estimated
Tue 03:14:00 AM -9.9809 -46.4741 167° South  Level Estimated
Tue 03:15:00 AM -10.0844 -46.4495 167° South  Level Estimated
Tue 03:16:00 AM -10.1880 -46.4249 167° South  Level Estimated
Tue 03:17:00 AM -10.2916 -46.4003 167° South  Level Estimated
Tue 03:18:00 AM -10.3952 -46.3757 167° South  Level Estimated
Tue 03:19:00 AM -10.4987 -46.3510 167° South  Level Estimated
Tue 03:20:00 AM -10.6023 -46.3264 167° South  Level Estimated
Tue 03:21:00 AM -10.7059 -46.3017 167° South  Level Estimated
Tue 03:22:00 AM -10.8095 -46.2770 167° South  Level Estimated
Tue 03:23:00 AM -10.9130 -46.2523 167° South  Level Estimated
Tue 03:24:00 AM -11.0166 -46.2275 167° South  Level Estimated
Tue 03:25:00 AM -11.1201 -46.2028 167° South  Level Estimated
Tue 03:26:00 AM -11.2237 -46.1780 167° South  Level Estimated
Tue 03:27:00 AM -11.3273 -46.1532 167° South  Level Estimated
Tue 03:28:00 AM -11.4308 -46.1284 167° South  Level Estimated
Tue 03:29:00 AM -11.5344 -46.1036 167° South  Level Estimated
Tue 03:30:00 AM -11.6379 -46.0787 167° South  Level Estimated
Tue 03:31:00 AM -11.7415 -46.0539 167° South  Level Estimated
Tue 03:32:00 AM -11.8450 -46.0290 167° South  Level Estimated
Tue 03:33:00 AM -11.9486 -46.0041 167° South  Level Estimated
Tue 03:34:00 AM -12.0521 -45.9792 167° South  Level Estimated
Tue 03:35:00 AM -12.1556 -45.9542 167° South  Level Estimated
Tue 03:36:00 AM -12.2592 -45.9293 167° South  Level Estimated
Tue 03:37:00 AM -12.3627 -45.9043 167° South  Level Estimated
Tue 03:38:00 AM -12.4663 -45.8793 167° South  Level Estimated
Tue 03:39:00 AM -12.5698 -45.8543 167° South  Level Estimated
Tue 03:40:00 AM -12.6733 -45.8292 167° South  Level Estimated
Tue 03:41:00 AM -12.7768 -45.8042 167° South  Level Estimated
Tue 03:42:00 AM -12.8804 -45.7791 167° South  Level Estimated
Tue 03:43:00 AM -12.9839 -45.7540 167° South  Level Estimated
Tue 03:44:00 AM -13.0874 -45.7289 167° South  Level Estimated
Tue 03:45:00 AM -13.1909 -45.7037 167° South  Level Estimated
Tue 03:46:00 AM -13.2944 -45.6786 167° South  Level Estimated
Tue 03:47:00 AM -13.3979 -45.6534 167° South  Level Estimated
Tue 03:48:00 AM -13.5014 -45.6282 167° South  Level Estimated
Tue 03:49:00 AM -13.6050 -45.6030 167° South  Level Estimated
Tue 03:50:00 AM -13.7085 -45.5777 167° South  Level Estimated
Tue 03:51:00 AM -13.8120 -45.5524 167° South  Level Estimated
Tue 03:52:00 AM -13.9155 -45.5271 167° South  Level Estimated
Tue 03:53:00 AM -14.0190 -45.5018 167° South  Level Estimated
Tue 03:54:00 AM -14.1224 -45.4765 167° South  Level Estimated
Tue 03:55:00 AM -14.2259 -45.4511 167° South  Level Estimated
Tue 03:56:00 AM -14.3294 -45.4258 167° South  Level Estimated
Tue 03:57:00 AM -14.4329 -45.4003 167° South  Level Estimated
Tue 03:58:00 AM -14.5364 -45.3749 167° South  Level Estimated
Tue 03:59:00 AM -14.6399 -45.3495 167° South  Level Estimated
Tue 04:00:00 AM -14.7434 -45.3240 167° South  Level Estimated
Tue 04:01:00 AM -14.8468 -45.2985 167° South  Level Estimated
Tue 04:02:00 AM -14.9503 -45.2730 167° South  Level Estimated
Tue 04:03:00 AM -15.0538 -45.2474 167° South  Level Estimated
Tue 04:04:00 AM -15.1572 -45.2218 167° South  Level Estimated
Tue 04:05:00 AM -15.2607 -45.1962 167° South  Level Estimated
Tue 04:06:00 AM -15.3642 -45.1706 167° South  Level Estimated
Tue 04:07:00 AM -15.4676 -45.1450 167° South  Level Estimated
Tue 04:08:00 AM -15.5711 -45.1193 167° South  Level Estimated
Tue 04:09:00 AM -15.6745 -45.0936 167° South  Level Estimated
Tue 04:10:00 AM -15.7780 -45.0678 167° South  Level Estimated
Tue 04:11:00 AM -15.8814 -45.0421 167° South  Level Estimated
Tue 04:12:00 AM -15.9849 -45.0163 167° South  Level Estimated
Tue 04:13:00 AM -16.0883 -44.9905 167° South  Level Estimated
Tue 04:14:00 AM -16.1917 -44.9646 167° South  Level Estimated
Tue 04:15:00 AM -16.2952 -44.9388 167° South  Level Estimated
Tue 04:16:00 AM -16.3986 -44.9129 166° South  Level Estimated
Tue 04:17:00 AM -16.5020 -44.8870 166° South  Level Estimated
Tue 04:18:00 AM -16.6054 -44.8610 166° South  Level Estimated
Tue 04:19:00 AM -16.7089 -44.8351 166° South  Level Estimated
Tue 04:20:00 AM -16.8123 -44.8091 166° South  Level Estimated
Tue 04:21:00 AM -16.9157 -44.7830 166° South  Level Estimated
Tue 04:22:00 AM -17.0191 -44.7570 166° South  Level Estimated
Tue 04:23:00 AM -17.1225 -44.7309 166° South  Level Estimated
Tue 04:24:00 AM -17.2259 -44.7048 166° South  Level Estimated
Tue 04:25:00 AM -17.3293 -44.6786 166° South  Level Estimated
Tue 04:26:00 AM -17.4327 -44.6524 166° South  Level Estimated
Tue 04:27:00 AM -17.5361 -44.6262 166° South  Level Estimated
Tue 04:28:00 AM -17.6395 -44.6000 166° South  Level Estimated
Tue 04:29:00 AM -17.7429 -44.5737 166° South  Level Estimated
Tue 04:30:00 AM -17.8463 -44.5474 166° South  Level Estimated
Tue 04:31:00 AM -17.9496 -44.5211 166° South  Level Estimated
Tue 04:32:00 AM -18.0530 -44.4947 166° South  Level Estimated
Tue 04:33:00 AM -18.1564 -44.4683 166° South  Level Estimated
Tue 04:34:00 AM -18.2598 -44.4419 166° South  Level Estimated
Tue 04:35:00 AM -18.3631 -44.4155 166° South  Level Estimated
Tue 04:36:00 AM -18.4665 -44.3890 166° South  Level Estimated
Tue 04:37:00 AM -18.5699 -44.3625 166° South  Level Estimated
Tue 04:38:00 AM -18.6732 -44.3359 166° South  Level Estimated
Tue 04:39:00 AM -18.7766 -44.3093 166° South  Level Estimated
Tue 04:40:00 AM -18.8799 -44.2827 166° South  Level Estimated
Tue 04:41:00 AM -18.9832 -44.2561 166° South  Level Estimated
Tue 04:42:00 AM -19.0866 -44.2294 166° South  Level Estimated
Tue 04:43:00 AM -19.1899 -44.2027 166° South  Level Estimated
Tue 04:44:00 AM -19.2933 -44.1760 166° South  Level Estimated
Tue 04:45:00 AM -19.3966 -44.1492 166° South  Level Estimated
Tue 04:46:00 AM -19.4999 -44.1224 166° South  Level Estimated
Tue 04:47:00 AM -19.6032 -44.0955 166° South  Level Estimated
Tue 04:48:00 AM -19.7066 -44.0686 166° South  Level Estimated
Tue 04:49:00 AM -19.8099 -44.0417 166° South  Level Estimated
Tue 04:50:00 AM -19.9132 -44.0148 166° South  Level Estimated
Tue 04:51:00 AM -20.0165 -43.9878 166° South  Level Estimated
Tue 04:52:00 AM -20.1198 -43.9608 166° South  Level Estimated
Tue 04:53:00 AM -20.2231 -43.9337 166° South  Level Estimated
Tue 04:54:00 AM -20.3264 -43.9066 166° South  Level Estimated
Tue 04:55:00 AM -20.4296 -43.8795 166° South  Level Estimated
Tue 04:56:00 AM -20.5329 -43.8523 166° South  Level Estimated
Tue 04:57:00 AM -20.6362 -43.8251 166° South  Level Estimated
Tue 04:58:00 AM -20.7395 -43.7979 166° South  Level Estimated
Tue 04:59:00 AM -20.8428 -43.7706 166° South  Level Estimated
Tue 05:00:00 AM -20.9460 -43.7433 166° South  Level Estimated
Tue 05:01:00 AM -21.0493 -43.7160 166° South  Level Estimated
Tue 05:02:00 AM -21.1525 -43.6886 166° South  Level Estimated
Tue 05:03:00 AM -21.2558 -43.6611 166° South  Level Estimated
Tue 05:04:00 AM -21.3590 -43.6337 166° South  Level Estimated
Tue 05:05:00 AM -21.4623 -43.6062 166° South  Level Estimated
Tue 05:06:00 AM -21.5655 -43.5786 166° South  Level Estimated
Tue 05:07:00 AM -21.6688 -43.5510 166° South  Level Estimated
Tue 05:08:00 AM -21.7720 -43.5234 166° South  Level Estimated
Tue 05:09:00 AM -21.8752 -43.4958 166° South  Level Estimated
Tue 05:10:00 AM -21.9784 -43.4681 166° South  Level Estimated
Tue 05:11:00 AM -22.0817 -43.4403 166° South  Level Estimated
Tue 05:12:00 AM -22.1849 -43.4126 166° South  Level Estimated
Tue 05:13:00 AM -22.2881 -43.3847 166° South  Level Estimated
Tue 05:14:00 AM -22.3913 -43.3568 166° South  Level Estimated
Tue 05:15:00 AM -22.4945 -43.3289 166° South  Level Estimated
Tue 05:16:00 AM -22.5977 -43.3010 166° South  Level Estimated
Tue 05:17:00 AM -22.7009 -43.2730 166° South  Level Estimated
Tue 05:18:00 AM -22.8040 -43.2450 166° South  Level Estimated
Tue 05:19:00 AM -22.8089 -43.2436 166° South  Level Estimated
Tue 05:20:00 AM -22.8089 -43.2436 137° Southeast  Level Estimated
Tue 05:21:00 AM -22.8089 -43.2436 137° Southeast  Level Estimated
Tue 05:22:00 AM -22.8089 -43.2436 137° Southeast  Level Estimated
Tue 05:23:00 AM -22.8089 -43.2436 137° Southeast  Level Estimated
Tue 05:24:00 AM -22.8089 -43.2436 137° Southeast  Level Estimated
Tue 05:25:00 AM -22.8089 -43.2436 137° Southeast  Level Estimated
Tue 05:26:00 AM -22.8089 -43.2436 137° Southeast  Level Estimated
Tue 05:27:00 AM -22.8089 -43.2436 137° Southeast  Level Estimated
Tue 05:28:00 AM -22.8089 -43.2436 137° Southeast  Level Estimated
Tue 05:29:00 AM -22.8089 -43.2436 137° Southeast  Level Estimated
Tue 05:30:00 AM -22.8089 -43.2436 137° Southeast  Level Estimated
Tue 05:31:00 AM -22.8089 -43.2436 137° Southeast  Level Estimated
Tue 05:32:00 AM -22.8089 -43.2436 137° Southeast  Level Estimated
Tue 05:33:00 AM -22.8089 -43.2436 137° Southeast  Level Estimated
Tue 05:34:00 AM -22.8089 -43.2436 137° Southeast  Level Estimated

Login

Don't have an account? Register now (free) for customized features, flight alerts, and more!